This is the latest recevied weather packets stored in our database for station/object OE6PLD-13. If no packets are shown the sender has not sent any weather packets the latest 10 day(s).
| Time | Temp. | Humidity | Pressure | Rain* | Wind** | Luminosity | Snow |
|---|---|---|---|---|---|---|---|
| 1778338152 | 12.78° C | 91% | 1014.9 hPa | 1.78 mm | - | 1 W/m² | - |
| 1778337968 | 13.33° C | 91% | 1015.2 hPa | 0.76 mm | - | 0 W/m² | - |
| 1778337785 | 13.33° C | 88% | 1015.1 hPa | 0 mm | - | 0 W/m² | - |
| 1778337602 | 13.89° C | 87% | 1014.8 hPa | 0 mm | - | 0 W/m² | - |
| 1778337418 | 15° C | 84% | 1014.8 hPa | 0.76 mm | - | 0 W/m² | - |
| 1778337235 | 15.56° C | 78% | 1014.4 hPa | 0.76 mm | - | 0 W/m² | - |
| 1778337051 | 15.56° C | 76% | 1014.4 hPa | 0.76 mm | - | 0 W/m² | - |
| 1778336868 | 16.67° C | 72% | 1014.2 hPa | 0.76 mm | - | 0 W/m² | - |
| 1778336684 | 17.22° C | 63% | 1013.9 hPa | 0.76 mm | - | 1 W/m² | - |
| 1778336500 | 17.78° C | 62% | 1013.7 hPa | 0.76 mm | - | 2 W/m² | - |
| 1778336317 | 17.78° C | 60% | 1013.5 hPa | 0.76 mm | - | 3 W/m² | - |
| 1778336132 | 18.89° C | 58% | 1013.1 hPa | 0.76 mm | - | 5 W/m² | - |
| 1778335949 | 18.89° C | 57% | 1013.2 hPa | 0.76 mm | - | 7 W/m² | - |
| 1778335766 | 20.56° C | 54% | 1013 hPa | 0.76 mm | - | 10 W/m² | - |
| 1778335581 | 20.56° C | 55% | 1012.9 hPa | 0.76 mm | - | 16 W/m² | - |
| 1778335398 | 20.56° C | 54% | 1012.6 hPa | 0.76 mm | - | 26 W/m² | - |
| 1778335214 | 21.11° C | 53% | 1012.5 hPa | 0.76 mm | - | 37 W/m² | - |
| 1778335031 | 21.11° C | 53% | 1012.8 hPa | 0.76 mm | - | 48 W/m² | - |
| 1778334847 | 21.11° C | 53% | 1012.7 hPa | 0.76 mm | - | 71 W/m² | - |
| 1778334664 | 21.11° C | 53% | 1012.6 hPa | 0.76 mm | - | 93 W/m² | - |
| 1778334481 | 21.11° C | 53% | 1012.8 hPa | 0.76 mm | - | 112 W/m² | - |
| 1778334297 | 21.67° C | 52% | 1012.7 hPa | 0.76 mm | - | 131 W/m² | - |
| 1778334114 | 21.11° C | 53% | 1012.8 hPa | 0.76 mm | - | 151 W/m² | - |
| 1778333930 | 21.67° C | 52% | 1012.8 hPa | 0.76 mm | - | 164 W/m² | - |
| 1778333747 | 21.67° C | 52% | 1012.8 hPa | 0.76 mm | - | 178 W/m² | - |
* Rain latest hour (hover to see other rain measurements)
** Current wind speed in m/s (hover to see current wind gust speed)